Time;durP1;ratioP1;P1;durP2;ratioP2;P2;SDS_P1;SDS_P2;PMS_P1;PMS_P2;Temp;Humidity;BMP_temperature;BMP_pressure;BME280_temperature;BME280_humidity;BME280_pressure;Samples;Min_cycle;Max_cycle;Signal;HPM_P1;HPM_P2
2023/10/11 00:02:17;;;;;;;111.65;8.63;;;;;;;-148.24;100.00;61531.34;5000896;28;20644;-54
2023/10/11 00:04:42;;;;;;;162.45;10.82;;;;;;;-148.24;100.00;61531.34;5000988;28;20026;-55
2023/10/11 00:07:09;;;;;;;135.38;10.40;;;;;;;-148.24;100.00;61531.34;5001512;28;20057;-54
2023/10/11 00:09:35;;;;;;;144.93;10.93;;;;;;;-148.24;100.00;61531.34;5001416;28;20033;-55
2023/10/11 00:12:04;;;;;;;121.15;9.60;;;;;;;-148.24;100.00;61531.34;5015225;28;20042;-56
2023/10/11 00:14:39;;;;;;;116.82;9.40;;;;;;;-148.24;100.00;61531.34;5001061;28;20413;-55
2023/10/11 00:17:05;;;;;;;141.50;10.05;;;;;;;-148.24;100.00;61531.34;5000960;28;20034;-55
2023/10/11 00:19:33;;;;;;;127.65;9.68;;;;;;;-148.24;100.00;61531.34;5002352;28;20025;-58
2023/10/11 00:22:00;;;;;;;117.57;9.30;;;;;;;-148.24;100.00;61531.34;5000749;28;20124;-55
2023/10/11 00:24:28;;;;;;;139.10;10.40;;;;;;;-148.24;100.00;61531.34;5000843;28;20058;-54
2023/10/11 00:26:56;;;;;;;103.38;8.88;;;;;;;-148.24;100.00;61531.34;4999774;28;20239;-54
2023/10/11 00:29:22;;;;;;;119.65;9.30;;;;;;;-148.24;100.00;61531.34;5000427;28;20223;-53
2023/10/11 00:31:51;;;;;;;122.60;9.35;;;;;;;-148.24;100.00;61531.34;5000714;28;20037;-53
2023/10/11 00:34:17;;;;;;;120.05;9.38;;;;;;;-148.24;100.00;61531.34;5002153;28;20322;-55
2023/10/11 00:36:45;;;;;;;192.07;12.43;;;;;;;-148.24;100.00;61531.34;4999370;28;20342;-54
2023/10/11 00:39:16;;;;;;;108.00;9.10;;;;;;;-148.24;100.00;61531.34;5001387;28;20378;-54
2023/10/11 00:41:42;;;;;;;190.07;11.93;;;;;;;-148.24;100.00;61531.34;5001693;28;20049;-53
2023/10/11 00:44:08;;;;;;;152.07;10.55;;;;;;;-148.24;100.00;61531.34;4999260;28;20030;-54
2023/10/11 00:46:42;;;;;;;118.45;10.45;;;;;;;-148.24;100.00;61531.34;5000009;28;20060;-52
2023/10/11 00:49:12;;;;;;;149.45;10.65;;;;;;;-148.24;100.00;61531.34;5000015;28;20029;-52
2023/10/11 00:51:41;;;;;;;162.43;10.95;;;;;;;-148.24;100.00;61531.34;4999577;28;20038;-53
2023/10/11 00:54:07;;;;;;;120.28;9.75;;;;;;;-148.24;100.00;61531.34;5000742;28;20017;-53
2023/10/11 00:56:33;;;;;;;131.10;10.02;;;;;;;-148.24;100.00;61531.34;5000202;28;20053;-53
2023/10/11 00:58:59;;;;;;;100.97;9.07;;;;;;;-148.24;100.00;61531.34;5001104;28;20042;-53
2023/10/11 01:01:25;;;;;;;99.32;8.88;;;;;;;-148.24;100.00;61531.34;5000838;28;20037;-51
2023/10/11 01:03:54;;;;;;;171.90;11.32;;;;;;;-148.24;100.00;61531.34;4999678;28;20029;-55
2023/10/11 01:06:25;;;;;;;119.95;9.98;;;;;;;-148.24;100.00;61531.34;5001116;28;20133;-54
2023/10/11 01:08:52;;;;;;;170.70;11.05;;;;;;;-148.24;100.00;61531.34;4999480;28;20029;-53
2023/10/11 01:11:18;;;;;;;109.10;9.18;;;;;;;-148.24;100.00;61531.34;4998606;28;20132;-53
2023/10/11 01:13:50;;;;;;;157.88;10.82;;;;;;;-148.24;100.00;61531.34;4999154;28;20026;-53
2023/10/11 01:16:18;;;;;;;135.60;10.25;;;;;;;-148.24;100.00;61531.34;4999501;28;20029;-55
2023/10/11 01:18:43;;;;;;;180.15;11.55;;;;;;;-148.24;100.00;61531.34;4996072;28;20045;-53
2023/10/11 01:21:12;;;;;;;120.47;9.20;;;;;;;-148.24;100.00;61531.34;4997752;28;20038;-53
2023/10/11 01:23:38;;;;;;;201.70;11.98;;;;;;;-148.24;100.00;61531.34;4997545;28;20022;-54
2023/10/11 01:26:07;;;;;;;161.07;10.35;;;;;;;-148.24;100.00;61531.34;4998770;28;20049;-53
2023/10/11 01:28:48;;;;;;;193.50;11.75;;;;;;;-148.24;100.00;61531.34;4998133;28;20180;-54
2023/10/11 01:31:16;;;;;;;129.73;9.45;;;;;;;-148.24;100.00;61531.34;4998083;28;20571;-52
2023/10/11 01:33:44;;;;;;;238.93;13.77;;;;;;;-148.24;100.00;61531.34;4998424;28;20022;-53
2023/10/11 01:36:11;;;;;;;104.70;8.95;;;;;;;-148.24;100.00;61531.34;4999048;28;20034;-53
2023/10/11 01:38:48;;;;;;;155.82;10.93;;;;;;;-148.24;100.00;61531.34;4998438;28;20030;-52
2023/10/11 01:41:26;;;;;;;157.75;10.35;;;;;;;-148.24;100.00;61531.34;4999157;28;20037;-53
2023/10/11 01:43:53;;;;;;;140.57;10.90;;;;;;;-148.24;100.00;61531.34;4998473;28;20025;-53
2023/10/11 01:46:27;;;;;;;162.18;10.75;;;;;;;-148.24;100.00;61531.34;4998410;28;20738;-52
2023/10/11 01:48:57;;;;;;;175.50;11.85;;;;;;;-148.24;100.00;61531.34;4997838;28;20103;-52
2023/10/11 01:51:26;;;;;;;189.27;11.73;;;;;;;-148.24;100.00;61531.34;4996439;28;20037;-53
2023/10/11 01:53:59;;;;;;;164.30;11.15;;;;;;;-148.24;100.00;61531.34;4997158;28;20405;-53
2023/10/11 01:56:26;;;;;;;156.98;10.60;;;;;;;-148.24;100.00;61531.34;4996561;28;20141;-53
2023/10/11 01:59:01;;;;;;;142.50;10.20;;;;;;;-148.24;100.00;61531.34;4997187;28;20044;-53
2023/10/11 02:01:30;;;;;;;118.32;9.70;;;;;;;-148.24;100.00;61531.34;4997859;28;20034;-52
2023/10/11 02:03:59;;;;;;;151.65;10.25;;;;;;;-148.24;100.00;61531.34;4997534;28;20347;-54
2023/10/11 02:06:31;;;;;;;123.35;8.98;;;;;;;-148.24;100.00;61531.34;4998771;28;20125;-53
2023/10/11 02:08:57;;;;;;;157.35;10.15;;;;;;;-148.24;100.00;61531.34;4996279;28;20242;-53
2023/10/11 02:11:29;;;;;;;130.15;9.43;;;;;;;-148.24;100.00;61531.34;4996944;28;20037;-51
2023/10/11 02:13:57;;;;;;;138.23;9.83;;;;;;;-148.24;100.00;61531.34;5014362;28;20026;-54
2023/10/11 02:16:28;;;;;;;181.45;11.25;;;;;;;-148.24;100.00;61531.34;4996300;28;20305;-57
2023/10/11 02:18:59;;;;;;;156.02;11.02;;;;;;;-148.24;100.00;61531.34;4996527;28;20133;-51
2023/10/11 02:21:29;;;;;;;207.15;11.82;;;;;;;-148.24;100.00;61531.34;4997143;28;20046;-51
2023/10/11 02:23:59;;;;;;;164.48;10.73;;;;;;;-148.24;100.00;61531.34;4995080;28;20092;-53
2023/10/11 02:26:37;;;;;;;126.68;9.55;;;;;;;-148.24;100.00;61531.34;4996574;28;20045;-52
2023/10/11 02:29:15;;;;;;;129.60;9.13;;;;;;;-148.24;100.00;61531.34;4997160;28;20583;-52
2023/10/11 02:31:40;;;;;;;187.68;11.63;;;;;;;-148.24;100.00;61531.34;4995419;28;20133;-52
2023/10/11 02:34:15;;;;;;;130.38;9.93;;;;;;;-148.24;100.00;61531.34;4996063;28;20477;-51
2023/10/11 02:36:44;;;;;;;163.57;10.75;;;;;;;-148.24;100.00;61531.34;4996276;28;20054;-52
2023/10/11 02:39:26;;;;;;;197.90;12.07;;;;;;;-148.24;100.00;61531.34;4995860;28;20033;-53
2023/10/11 02:41:58;;;;;;;179.68;11.55;;;;;;;-148.24;100.00;61531.34;4995068;28;20117;-53
2023/10/11 02:44:24;;;;;;;173.43;10.80;;;;;;;-148.24;100.00;61531.34;4996439;28;20375;-52
2023/10/11 02:46:50;;;;;;;167.85;11.52;;;;;;;-148.24;100.00;61531.34;4995523;28;20034;-53
2023/10/11 02:49:18;;;;;;;149.45;9.55;;;;;;;-148.24;100.00;61531.34;4997004;28;20030;-52
2023/10/11 02:51:53;;;;;;;215.30;12.30;;;;;;;-148.24;100.00;61531.34;4994719;28;20045;-52
2023/10/11 02:54:20;;;;;;;143.75;9.30;;;;;;;-148.24;100.00;61531.34;4996754;28;20743;-51
2023/10/11 02:56:48;;;;;;;186.77;11.18;;;;;;;-148.24;100.00;61531.34;4994169;28;20422;-54
2023/10/11 02:59:19;;;;;;;115.95;8.30;;;;;;;-148.24;100.00;61531.34;4996570;28;20064;-55
2023/10/11 03:01:59;;;;;;;202.23;11.95;;;;;;;-148.24;100.00;61531.34;4994058;28;20692;-55
2023/10/11 03:04:29;;;;;;;131.00;9.57;;;;;;;-148.24;100.00;61531.34;4995631;28;20418;-52
2023/10/11 03:06:54;;;;;;;225.07;13.05;;;;;;;-148.24;100.00;61531.34;4994609;28;20060;-51
2023/10/11 03:09:20;;;;;;;143.57;10.02;;;;;;;-148.24;100.00;61531.34;4996541;28;20057;-52
2023/10/11 03:11:45;;;;;;;162.52;10.40;;;;;;;-148.24;100.00;61531.34;4995122;28;20076;-53
2023/10/11 03:14:15;;;;;;;173.10;11.02;;;;;;;-148.24;100.00;61531.34;4994469;28;20118;-55
2023/10/11 03:16:42;;;;;;;168.80;10.77;;;;;;;-148.24;100.00;61531.34;4994811;28;20038;-52
2023/10/11 03:19:10;;;;;;;140.00;9.60;;;;;;;-148.24;100.00;61531.34;4997900;28;20464;-53
2023/10/11 03:21:35;;;;;;;153.98;10.30;;;;;;;-148.24;100.00;61531.34;4996263;28;20123;-53
2023/10/11 03:24:05;;;;;;;111.15;9.30;;;;;;;-148.24;100.00;61531.34;4993941;28;20030;-53
2023/10/11 03:26:31;;;;;;;157.18;10.45;;;;;;;-148.24;100.00;61531.34;4996506;28;20387;-53
2023/10/11 03:29:05;;;;;;;134.73;10.02;;;;;;;-148.24;100.00;61531.34;4993445;28;20182;-52
2023/10/11 03:31:39;;;;;;;136.75;9.57;;;;;;;-148.24;100.00;61531.34;4996027;28;20045;-51
2023/10/11 03:34:14;;;;;;;149.32;10.45;;;;;;;-148.24;100.00;61531.34;4995583;28;20036;-53
2023/10/11 03:36:51;;;;;;;133.73;9.30;;;;;;;-148.24;100.00;61531.34;4994991;28;20038;-53
2023/10/11 03:44:40;;;;;;;92.55;7.78;;;;;;;-148.24;100.00;61531.34;4995889;28;20018;-54
2023/10/11 03:47:08;;;;;;;119.63;9.20;;;;;;;-148.24;100.00;61531.34;4995231;28;20041;-52
2023/10/11 03:52:18;;;;;;;142.50;10.35;;;;;;;-148.24;100.00;61531.34;4995254;28;20119;-54
2023/10/11 03:54:45;;;;;;;232.57;13.02;;;;;;;-148.24;100.00;61531.34;4993019;28;20030;-53
2023/10/11 03:57:10;;;;;;;148.18;10.18;;;;;;;-148.24;100.00;61531.34;4996197;28;20065;-53
2023/10/11 03:59:39;;;;;;;143.38;9.63;;;;;;;-148.24;100.00;61531.34;4996128;28;20488;-52
2023/10/11 04:02:10;;;;;;;180.35;11.30;;;;;;;-148.24;100.00;61531.34;4994480;28;20116;-54
2023/10/11 04:04:36;;;;;;;115.57;9.57;;;;;;;-148.24;100.00;61531.34;4995432;28;20593;-53
2023/10/11 04:07:02;;;;;;;179.63;11.25;;;;;;;-148.24;100.00;61531.34;4993756;28;20034;-51
2023/10/11 04:12:04;;;;;;;131.32;9.27;;;;;;;-148.24;100.00;61531.34;4994063;28;20221;-55
2023/10/11 04:14:39;;;;;;;158.60;10.27;;;;;;;-148.24;100.00;61531.34;4994271;28;20387;-54
2023/10/11 04:17:27;;;;;;;151.93;10.13;;;;;;;-148.24;100.00;61531.34;4993613;28;20267;-53
2023/10/11 04:20:18;;;;;;;196.85;13.18;;;;;;;-148.24;100.00;61531.34;4996362;28;20354;-53
2023/10/11 04:23:01;;;;;;;123.65;9.90;;;;;;;-148.24;100.00;61531.34;4998346;28;20053;-54
2023/10/11 04:25:31;;;;;;;130.90;9.50;;;;;;;-148.24;100.00;61531.34;4997621;28;20041;-53
2023/10/11 04:27:57;;;;;;;163.80;11.18;;;;;;;-148.24;100.00;61531.34;4998584;28;20022;-53
2023/10/11 04:30:41;;;;;;;147.32;10.20;;;;;;;-148.24;100.00;61531.34;4998509;28;20030;-53
2023/10/11 04:33:13;;;;;;;152.18;10.48;;;;;;;-148.24;100.00;61531.34;4982946;28;20014;-54
2023/10/11 04:35:46;;;;;;;142.60;10.23;;;;;;;-148.24;100.00;61531.34;4997479;28;20640;-54
2023/10/11 04:38:12;;;;;;;149.05;10.35;;;;;;;-148.24;100.00;61531.34;5000366;28;20018;-54
2023/10/11 04:40:42;;;;;;;167.15;10.95;;;;;;;-148.24;100.00;61531.34;4999126;28;20042;-54
2023/10/11 04:43:26;;;;;;;152.63;10.73;;;;;;;-148.24;100.00;61531.34;4998411;28;20055;-52
2023/10/11 04:45:59;;;;;;;141.25;10.43;;;;;;;-148.24;100.00;61531.34;4996807;28;20038;-53
2023/10/11 04:48:29;;;;;;;189.70;11.98;;;;;;;-148.24;100.00;61531.34;4996755;28;20112;-53
2023/10/11 04:51:04;;;;;;;171.57;11.70;;;;;;;-148.24;100.00;61531.34;4998527;28;20057;-52
2023/10/11 04:58:59;;;;;;;158.02;10.35;;;;;;;-148.24;100.00;61531.34;5000041;28;20056;-55
2023/10/11 05:01:39;;;;;;;129.23;9.73;;;;;;;-148.24;100.00;61531.34;4999604;28;20589;-54
2023/10/11 05:04:09;;;;;;;170.35;11.43;;;;;;;-148.24;100.00;61531.34;4996900;28;20360;-56
2023/10/11 05:06:40;;;;;;;142.63;10.38;;;;;;;-148.24;100.00;61531.34;4999100;28;20564;-55
2023/10/11 05:09:29;;;;;;;166.98;11.25;;;;;;;-148.24;100.00;61531.34;4998775;28;20084;-55
2023/10/11 05:11:58;;;;;;;125.10;9.93;;;;;;;-148.24;100.00;61531.34;4998588;28;20034;-56
2023/10/11 05:14:28;;;;;;;162.05;10.45;;;;;;;-148.24;100.00;61531.34;4999378;28;20386;-54
2023/10/11 05:19:55;;;;;;;191.80;12.13;;;;;;;-148.24;100.00;61531.34;4999222;28;20052;-53
2023/10/11 05:22:29;;;;;;;124.50;9.83;;;;;;;-148.24;100.00;61531.34;4998918;28;20484;-53
2023/10/11 05:30:10;;;;;;;182.90;12.50;;;;;;;-148.24;100.00;61531.34;4999044;28;20434;-55
2023/10/11 05:51:29;;;;;;;148.10;10.88;;;;;;;-148.24;100.00;61531.34;4997989;28;20045;-52
2023/10/11 05:53:55;;;;;;;171.32;12.32;;;;;;;-148.24;100.00;61531.34;4997925;28;20045;-54
2023/10/11 05:56:21;;;;;;;80.45;8.70;;;;;;;-148.24;100.00;61531.34;4999096;28;20084;-54
2023/10/11 05:58:51;;;;;;;127.20;9.82;;;;;;;-148.24;100.00;61531.34;4997784;28;20315;-53
2023/10/11 06:01:19;;;;;;;100.72;8.68;;;;;;;-148.24;100.00;61531.34;4999280;28;20313;-52
2023/10/11 06:03:48;;;;;;;127.45;10.10;;;;;;;-148.24;100.00;61531.34;5012981;28;20061;-53
2023/10/11 06:06:37;;;;;;;150.68;10.73;;;;;;;-148.24;100.00;61531.34;4995951;28;20077;-53
2023/10/11 06:09:05;;;;;;;186.85;12.02;;;;;;;-148.24;100.00;61531.34;4995044;28;20528;-54
2023/10/11 06:11:36;;;;;;;163.88;11.23;;;;;;;-148.24;100.00;61531.34;4995010;28;20053;-52
2023/10/11 06:14:07;;;;;;;183.77;12.57;;;;;;;-148.24;100.00;61531.34;4995852;28;20022;-54
2023/10/11 06:16:37;;;;;;;204.48;12.82;;;;;;;-148.24;100.00;61531.34;4994555;28;20039;-53
2023/10/11 06:19:16;;;;;;;174.68;11.27;;;;;;;-148.24;100.00;61531.34;4996762;28;20021;-53
2023/10/11 06:24:24;;;;;;;143.63;10.02;;;;;;;-148.24;100.00;61531.34;4996185;28;20498;-53
2023/10/11 06:26:52;;;;;;;213.02;12.60;;;;;;;-148.24;100.00;61531.34;4994238;28;20099;-52
2023/10/11 06:29:23;;;;;;;134.25;10.35;;;;;;;-148.24;100.00;61531.34;4996089;28;20033;-52
2023/10/11 06:31:49;;;;;;;155.88;11.45;;;;;;;-148.24;100.00;61531.34;4993302;28;20045;-53
2023/10/11 06:34:19;;;;;;;131.35;10.10;;;;;;;-148.24;100.00;61531.34;4995586;28;20037;-54
2023/10/11 06:36:50;;;;;;;131.98;10.10;;;;;;;-148.24;100.00;61531.34;4995485;28;20133;-54
2023/10/11 06:42:21;;;;;;;160.05;11.15;;;;;;;-148.24;100.00;61531.34;4987449;28;20860;-54
2023/10/11 06:45:05;;;;;;;106.30;9.43;;;;;;;-148.24;100.00;61531.34;4997578;28;20026;-53
2023/10/11 06:47:33;;;;;;;177.75;12.18;;;;;;;-148.24;100.00;61531.34;4996885;28;20049;-53
2023/10/11 06:50:10;;;;;;;159.45;11.55;;;;;;;-148.24;100.00;61531.34;4996752;28;20029;-54
2023/10/11 06:52:37;;;;;;;154.40;11.20;;;;;;;-148.24;100.00;61531.34;4997076;28;20049;-54
2023/10/11 06:55:16;;;;;;;115.55;9.60;;;;;;;-148.24;100.00;61531.34;4995849;28;20484;-55
2023/10/11 06:57:56;;;;;;;158.63;11.35;;;;;;;-148.24;100.00;61531.34;4995963;28;20045;-53
2023/10/11 07:00:30;;;;;;;111.07;9.77;;;;;;;-148.24;100.00;61531.34;4996583;28;20022;-55
2023/10/11 07:03:26;;;;;;;186.02;12.85;;;;;;;-148.24;100.00;61531.34;4993714;28;20036;-52
2023/10/11 07:05:56;;;;;;;110.43;9.60;;;;;;;-148.24;100.00;61531.34;4998035;28;20042;-55
2023/10/11 07:08:31;;;;;;;142.40;10.48;;;;;;;-148.24;100.00;61531.34;5000084;28;20032;-56
2023/10/11 07:16:22;;;;;;;115.47;9.77;;;;;;;-148.24;100.00;61531.34;5000479;28;20069;-54
2023/10/11 07:18:50;;;;;;;86.88;8.68;;;;;;;-148.24;100.00;61531.34;5001490;28;20030;-55
2023/10/11 07:21:17;;;;;;;97.07;9.07;;;;;;;-148.24;100.00;61531.34;5001014;28;20539;-55
2023/10/11 07:28:56;;;;;;;135.13;10.20;;;;;;;-148.24;100.00;61531.34;4999429;28;20033;-55
2023/10/11 07:31:33;;;;;;;70.60;7.05;;;;;;;-148.24;100.00;61531.34;5000494;28;20402;-56
2023/10/11 07:34:06;;;;;;;150.55;10.95;;;;;;;-148.24;100.00;61531.34;4999109;28;20026;-55
2023/10/11 07:36:37;;;;;;;74.25;8.43;;;;;;;-148.24;100.00;61531.34;5001642;28;20037;-57
2023/10/11 07:39:14;;;;;;;128.05;10.70;;;;;;;-148.24;100.00;61531.34;5001723;28;20018;-54
2023/10/11 07:41:43;;;;;;;87.03;8.70;;;;;;;-148.24;100.00;61531.34;4999250;28;20052;-55
2023/10/11 07:44:10;;;;;;;129.25;17.67;;;;;;;-148.24;100.00;61531.34;4999694;28;20026;-56
2023/10/11 07:46:38;;;;;;;86.88;8.63;;;;;;;-148.24;100.00;61531.34;5000114;28;20096;-54
2023/10/11 07:49:07;;;;;;;242.38;132.95;;;;;;;-148.24;100.00;61531.34;4999886;28;20060;-54
2023/10/11 07:51:39;;;;;;;127.32;32.88;;;;;;;-148.24;100.00;61531.34;5000569;28;20034;-53
2023/10/11 07:54:11;;;;;;;106.97;20.27;;;;;;;-148.24;100.00;61531.34;5002315;28;20045;-53
2023/10/11 07:56:37;;;;;;;106.72;16.52;;;;;;;-148.24;100.00;61531.34;5003467;28;20044;-55
2023/10/11 07:59:07;;;;;;;367.75;283.60;;;;;;;-148.24;100.00;61531.34;5003610;28;20022;-54
2023/10/11 08:01:42;;;;;;;323.52;286.52;;;;;;;-148.24;100.00;61531.34;5004564;28;20681;-53
2023/10/11 08:04:18;;;;;;;461.77;342.25;;;;;;;-148.24;100.00;61531.34;5002163;28;20513;-55
2023/10/11 08:06:44;;;;;;;367.15;327.38;;;;;;;-148.24;100.00;61531.34;5003180;28;20033;-55
2023/10/11 08:09:18;;;;;;;418.17;344.92;;;;;;;-148.24;100.00;61531.34;5002740;28;20151;-56
2023/10/11 08:11:52;;;;;;;440.02;364.92;;;;;;;-148.24;100.00;61531.34;5004902;28;20449;-55
2023/10/11 08:14:22;;;;;;;451.38;401.48;;;;;;;-148.24;100.00;61531.34;5005094;28;20033;-55
2023/10/11 08:16:52;;;;;;;446.35;399.90;;;;;;;-148.24;100.00;61531.34;5018940;28;20034;-55
2023/10/11 08:19:18;;;;;;;298.80;265.92;;;;;;;-148.24;100.00;61531.34;5004887;28;20367;-56
2023/10/11 08:21:57;;;;;;;328.00;261.73;;;;;;;-148.24;100.00;61531.34;5002519;28;20644;-56
2023/10/11 08:24:29;;;;;;;374.55;336.23;;;;;;;-148.24;100.00;61531.34;5003298;28;20328;-58
2023/10/11 08:27:06;;;;;;;317.20;251.25;;;;;;;-148.24;100.00;61531.34;5001322;28;20037;-57
2023/10/11 08:29:32;;;;;;;322.73;289.60;;;;;;;-148.24;100.00;61531.34;5003965;28;20041;-56
2023/10/11 08:31:59;;;;;;;348.55;265.92;;;;;;;-148.24;100.00;61531.34;5002316;28;20030;-57
2023/10/11 08:34:26;;;;;;;301.25;263.65;;;;;;;-148.24;100.00;61531.34;5004359;28;20045;-54
2023/10/11 08:36:54;;;;;;;271.40;242.18;;;;;;;-148.24;100.00;61531.34;5003531;28;20416;-55
2023/10/11 08:39:26;;;;;;;329.60;264.77;;;;;;;-148.24;100.00;61531.34;5002433;28;20117;-59
2023/10/11 08:41:58;;;;;;;280.75;240.88;;;;;;;-148.24;100.00;61531.34;5003660;28;20037;-55
2023/10/11 08:44:27;;;;;;;344.58;272.15;;;;;;;-148.24;100.00;61531.34;5002467;28;20033;-55
2023/10/11 08:46:54;;;;;;;308.90;275.90;;;;;;;-148.24;100.00;61531.34;5002587;28;20571;-54
2023/10/11 08:49:19;;;;;;;344.13;310.00;;;;;;;-148.24;100.00;61531.34;5002523;28;20037;-55
2023/10/11 08:51:45;;;;;;;367.10;297.73;;;;;;;-148.24;100.00;61531.34;5002429;28;20100;-54
2023/10/11 08:54:12;;;;;;;353.75;270.20;;;;;;;-148.24;100.00;61531.34;5003261;28;20097;-55
2023/10/11 08:56:48;;;;;;;322.23;286.33;;;;;;;-148.24;100.00;61531.34;5002375;28;20041;-55
2023/10/11 08:59:15;;;;;;;327.35;257.45;;;;;;;-148.24;100.00;61531.34;5003634;28;20022;-53
2023/10/11 09:01:45;;;;;;;337.70;301.42;;;;;;;-148.24;100.00;61531.34;5002290;28;20088;-54
2023/10/11 09:04:16;;;;;;;391.60;275.13;;;;;;;-148.24;100.00;61531.34;5001258;28;20021;-57
2023/10/11 09:06:43;;;;;;;353.83;293.58;;;;;;;-148.24;100.00;61531.34;4998971;28;20146;-55
2023/10/11 09:09:15;;;;;;;444.50;343.33;;;;;;;-148.24;100.00;61531.34;5001254;28;20107;-54
2023/10/11 09:11:53;;;;;;;338.10;283.67;;;;;;;-148.24;100.00;61531.34;5001861;28;20274;-55
2023/10/11 09:14:28;;;;;;;320.40;271.10;;;;;;;-148.24;100.00;61531.34;5002669;28;20136;-54
2023/10/11 09:17:02;;;;;;;448.92;322.10;;;;;;;-148.24;100.00;61531.34;5001169;28;20473;-55
2023/10/11 09:19:28;;;;;;;425.80;381.80;;;;;;;-148.24;100.00;61531.34;5003016;28;20087;-55
2023/10/11 09:22:04;;;;;;;368.90;330.15;;;;;;;-148.24;100.00;61531.34;5002644;28;20037;-55
2023/10/11 09:24:41;;;;;;;424.02;378.05;;;;;;;-148.24;100.00;61531.34;5002159;28;20502;-55
2023/10/11 09:29:50;;;;;;;343.75;228.52;;;;;;;-148.24;100.00;61531.34;5001644;28;20374;-54
2023/10/11 09:32:19;;;;;;;398.98;308.73;;;;;;;-148.24;100.00;61531.34;5000174;28;20108;-57
2023/10/11 09:34:51;;;;;;;297.40;249.00;;;;;;;-148.24;100.00;61531.34;5002866;28;20104;-56
2023/10/11 09:37:16;;;;;;;304.45;239.10;;;;;;;-148.24;100.00;61531.34;5001404;28;20030;-55
2023/10/11 09:39:43;;;;;;;300.20;267.27;;;;;;;-148.24;100.00;61531.34;5002584;28;20188;-54
2023/10/11 09:42:11;;;;;;;502.00;242.52;;;;;;;-148.24;100.00;61531.34;5000754;28;20133;-54
2023/10/11 09:44:37;;;;;;;350.67;299.30;;;;;;;-148.24;100.00;61531.34;5001172;28;20335;-54
2023/10/11 09:47:16;;;;;;;376.98;313.67;;;;;;;-148.24;100.00;61531.34;5001815;28;20473;-54
2023/10/11 09:49:42;;;;;;;340.55;271.30;;;;;;;-148.24;100.00;61531.34;5001793;28;20049;-55
2023/10/11 09:52:18;;;;;;;351.73;290.80;;;;;;;-148.24;100.00;61531.34;5001121;28;20104;-56
2023/10/11 09:54:44;;;;;;;452.40;321.55;;;;;;;-148.24;100.00;61531.34;5000748;28;20416;-56
2023/10/11 09:57:50;;;;;;;510.23;307.00;;;;;;;-148.24;100.00;61531.34;4998691;28;20133;-56
2023/10/11 10:00:37;;;;;;;395.05;268.15;;;;;;;-148.24;100.00;61531.34;4999027;28;20616;-56
2023/10/11 10:03:05;;;;;;;506.90;372.23;;;;;;;-148.24;100.00;61531.34;4999097;28;20473;-55
2023/10/11 10:06:07;;;;;;;362.17;295.02;;;;;;;-148.24;100.00;61531.34;4999935;28;20038;-55
2023/10/11 10:08:32;;;;;;;;;;;;;;;-148.24;100.00;61531.34;5010154;28;20165;-54
2023/10/11 10:10:58;;;;;;;362.63;307.42;;;;;;;-148.24;100.00;61531.34;5000031;28;19968;-55
2023/10/11 10:13:26;;;;;;;455.48;331.25;;;;;;;-148.24;100.00;61531.34;5000009;28;20029;-54
2023/10/11 10:15:53;;;;;;;245.48;181.18;;;;;;;-148.24;100.00;61531.34;5000341;28;20372;-55
2023/10/11 10:18:20;;;;;;;420.60;312.38;;;;;;;-148.24;100.00;61531.34;5000996;28;20088;-55
2023/10/11 10:20:47;;;;;;;339.42;263.10;;;;;;;-148.24;100.00;61531.34;5000700;28;20033;-55
2023/10/11 10:23:15;;;;;;;437.35;336.60;;;;;;;-148.24;100.00;61531.34;5000993;28;20021;-55
2023/10/11 10:25:48;;;;;;;375.98;307.55;;;;;;;-148.24;100.00;61531.34;5000841;28;20048;-54
2023/10/11 10:28:45;;;;;;;415.05;317.60;;;;;;;-148.24;100.00;61531.34;5001198;28;20021;-53
2023/10/11 10:31:16;;;;;;;297.95;219.88;;;;;;;-148.24;100.00;61531.34;4999084;28;20583;-55
2023/10/11 10:33:52;;;;;;;330.25;270.85;;;;;;;-148.24;100.00;61531.34;5002280;28;20101;-55
2023/10/11 10:36:17;;;;;;;325.98;258.08;;;;;;;-148.24;100.00;61531.34;5000276;28;20050;-55
2023/10/11 10:39:01;;;;;;;257.48;227.48;;;;;;;-148.24;100.00;61531.34;5001073;28;20394;-54
2023/10/11 10:41:27;;;;;;;438.15;201.52;;;;;;;-148.24;100.00;61531.34;5001062;28;20176;-57
2023/10/11 10:44:06;;;;;;;356.10;318.23;;;;;;;-148.24;100.00;61531.34;5011385;28;20033;-53
2023/10/11 10:46:36;;;;;;;365.67;305.05;;;;;;;-148.24;100.00;61531.34;4999105;28;20505;-56
2023/10/11 10:49:05;;;;;;;321.25;238.60;;;;;;;-148.24;100.00;61531.34;4999489;28;20062;-56
2023/10/11 10:51:39;;;;;;;374.58;323.52;;;;;;;-148.24;100.00;61531.34;5000538;28;20062;-55
2023/10/11 10:54:14;;;;;;;312.15;244.20;;;;;;;-148.24;100.00;61531.34;5000065;28;20575;-54
2023/10/11 10:56:40;;;;;;;452.60;383.27;;;;;;;-148.24;100.00;61531.34;5000290;28;20034;-55
2023/10/11 10:59:14;;;;;;;585.85;370.98;;;;;;;-148.24;100.00;61531.34;4999068;28;20021;-54
2023/10/11 11:01:44;;;;;;;292.77;259.45;;;;;;;-148.24;100.00;61531.34;5000600;28;20052;-55
2023/10/11 11:04:11;;;;;;;527.03;371.13;;;;;;;-148.24;100.00;61531.34;4998633;28;20430;-54
2023/10/11 11:06:37;;;;;;;285.23;245.18;;;;;;;-148.24;100.00;61531.34;4999946;28;20409;-55
2023/10/11 11:09:04;;;;;;;329.35;293.30;;;;;;;-148.24;100.00;61531.34;4999606;28;20022;-54
2023/10/11 11:11:35;;;;;;;389.20;335.00;;;;;;;-148.24;100.00;61531.34;5000970;28;20777;-56
2023/10/11 11:14:09;;;;;;;332.98;291.38;;;;;;;-148.24;100.00;61531.34;5001480;28;20116;-55
2023/10/11 11:16:39;;;;;;;286.92;220.73;;;;;;;-148.24;100.00;61531.34;5001208;28;20069;-55
2023/10/11 11:19:19;;;;;;;270.27;239.60;;;;;;;-148.24;100.00;61531.34;5000980;28;20073;-56
2023/10/11 11:21:45;;;;;;;304.20;240.68;;;;;;;-148.24;100.00;61531.34;4998548;28;20034;-55
2023/10/11 11:24:18;;;;;;;282.23;162.40;;;;;;;-148.24;100.00;61531.34;4999259;28;20776;-55
2023/10/11 11:26:45;;;;;;;306.38;270.08;;;;;;;-148.24;100.00;61531.34;5001304;28;20472;-55
2023/10/11 11:29:16;;;;;;;440.25;301.73;;;;;;;-148.24;100.00;61531.34;5001773;28;20025;-55
2023/10/11 11:31:52;;;;;;;292.55;176.00;;;;;;;-148.24;100.00;61531.34;5004760;28;20417;-56
2023/10/11 11:34:38;;;;;;;321.75;166.70;;;;;;;-148.24;100.00;61531.34;5003053;28;20590;-55
2023/10/11 11:37:06;;;;;;;229.88;51.47;;;;;;;-148.24;100.00;61531.34;5004368;28;20041;-55
2023/10/11 11:39:41;;;;;;;357.67;245.65;;;;;;;-148.24;100.00;61531.34;5004067;28;20029;-56
2023/10/11 11:42:18;;;;;;;386.55;338.00;;;;;;;-148.24;100.00;61531.34;5003028;28;20118;-54
2023/10/11 11:44:46;;;;;;;271.38;227.57;;;;;;;-148.24;100.00;61531.34;5004083;28;20105;-55
2023/10/11 11:47:11;;;;;;;316.70;239.38;;;;;;;-148.24;100.00;61531.34;5018593;28;20041;-53
2023/10/11 11:49:36;;;;;;;386.92;340.80;;;;;;;-148.24;100.00;61531.34;5003866;28;20385;-54
2023/10/11 11:52:02;;;;;;;193.90;81.53;;;;;;;-148.24;100.00;61531.34;5006125;28;20040;-55
2023/10/11 11:54:31;;;;;;;385.05;285.27;;;;;;;-148.24;100.00;61531.34;5004418;28;20014;-54
2023/10/11 11:56:57;;;;;;;228.50;44.97;;;;;;;-148.24;100.00;61531.34;5002845;28;20416;-55
2023/10/11 11:59:29;;;;;;;276.25;190.07;;;;;;;-148.24;100.00;61531.34;5003634;28;20582;-53
2023/10/11 12:01:59;;;;;;;382.83;322.25;;;;;;;-148.24;100.00;61531.34;5002639;28;20037;-54
2023/10/11 12:04:32;;;;;;;285.05;236.10;;;;;;;-148.24;100.00;61531.34;5001185;28;20117;-54
2023/10/11 12:07:03;;;;;;;292.80;260.80;;;;;;;-148.24;100.00;61531.34;5003567;28;20121;-55